Time;durP1;ratioP1;P1;durP2;ratioP2;P2;SDS_P1;SDS_P2;PMS_P1;PMS_P2;Temp;Humidity;BMP_temperature;BMP_pressure;BME280_temperature;BME280_humidity;BME280_pressure;Samples;Min_cycle;Max_cycle;Signal;HPM_P1;HPM_P2
2021/10/16 00:00:50;;;;;;;0.00;0.00;;;10.50;64.10;;;;;;5056493;28;20025;-75
2021/10/16 00:03:15;;;;;;;0.10;0.10;;;10.50;64.10;;;;;;5056145;28;20025;-75
2021/10/16 00:05:42;;;;;;;0.00;0.00;;;10.50;64.10;;;;;;5056012;28;20029;-76
2021/10/16 00:08:08;;;;;;;0.05;0.05;;;10.50;63.90;;;;;;5056334;28;20021;-75
2021/10/16 00:10:34;;;;;;;0.00;0.00;;;10.50;63.70;;;;;;5038260;28;20021;-75
2021/10/16 00:12:59;;;;;;;0.00;0.00;;;10.60;63.60;;;;;;5055883;28;20036;-75
2021/10/16 00:15:26;;;;;;;0.00;0.00;;;10.50;63.50;;;;;;5038365;28;20029;-75
2021/10/16 00:17:52;;;;;;;0.00;0.00;;;10.50;63.50;;;;;;5056175;28;20047;-76
2021/10/16 00:20:18;;;;;;;0.00;0.00;;;10.40;63.50;;;;;;5057940;28;20029;-76
2021/10/16 00:22:43;;;;;;;0.00;0.00;;;10.40;63.50;;;;;;5061702;28;20444;-76
2021/10/16 00:25:09;;;;;;;0.00;0.00;;;10.40;63.50;;;;;;5038196;28;20116;-75
2021/10/16 00:27:35;;;;;;;0.00;0.00;;;10.40;63.40;;;;;;5038091;28;20025;-74
2021/10/16 00:30:01;;;;;;;0.00;0.00;;;10.40;63.30;;;;;;5020623;28;20033;-74
2021/10/16 00:32:26;;;;;;;0.00;0.00;;;10.30;63.30;;;;;;5037918;28;20028;-75
2021/10/16 00:34:52;;;;;;;0.00;0.00;;;10.40;63.30;;;;;;5055940;28;20086;-75
2021/10/16 00:37:18;;;;;;;0.00;0.00;;;10.30;63.20;;;;;;5055488;28;20021;-75
2021/10/16 00:39:43;;;;;;;0.00;0.00;;;10.30;63.20;;;;;;5055821;28;20017;-75
2021/10/16 00:42:09;;;;;;;0.00;0.00;;;10.40;63.20;;;;;;5055411;28;20029;-75
2021/10/16 00:44:36;;;;;;;0.05;0.00;;;10.40;63.00;;;;;;5055340;28;20025;-74
2021/10/16 00:47:02;;;;;;;0.00;0.00;;;10.50;62.90;;;;;;5037730;28;20093;-74
2021/10/16 00:49:29;;;;;;;0.00;0.00;;;10.50;62.70;;;;;;5055137;28;20025;-74
2021/10/16 00:51:59;;;;;;;0.00;0.00;;;10.60;62.60;;;;;;5055432;28;20108;-75
2021/10/16 00:54:25;;;;;;;0.00;0.00;;;10.60;62.50;;;;;;5055216;28;20021;-75
2021/10/16 00:56:52;;;;;;;0.00;0.00;;;10.60;62.40;;;;;;5054991;28;20480;-74
2021/10/16 00:59:19;;;;;;;0.00;0.00;;;10.70;62.40;;;;;;5055196;28;20104;-75
2021/10/16 01:01:45;;;;;;;0.00;0.00;;;10.70;62.40;;;;;;5037473;28;20033;-75
2021/10/16 01:04:11;;;;;;;0.00;0.00;;;10.70;62.30;;;;;;5054954;28;20060;-74
2021/10/16 01:06:38;;;;;;;0.00;0.00;;;10.70;62.20;;;;;;5055565;28;20039;-74
2021/10/16 01:09:10;;;;;;;0.00;0.00;;;10.80;62.10;;;;;;5055203;28;20021;-75
2021/10/16 01:11:44;;;;;;;0.00;0.00;;;10.80;62.00;;;;;;5055004;28;20036;-75
2021/10/16 01:14:12;;;;;;;0.00;0.00;;;10.80;62.00;;;;;;5054943;28;20100;-74
2021/10/16 01:16:41;;;;;;;0.00;0.00;;;10.80;61.80;;;;;;5054967;28;20029;-76
2021/10/16 01:19:10;;;;;;;0.00;0.00;;;10.80;61.70;;;;;;5054504;28;20029;-76
2021/10/16 01:21:41;;;;;;;0.00;0.00;;;10.90;61.70;;;;;;5036681;28;20075;-76
2021/10/16 01:24:09;;;;;;;0.00;0.00;;;10.90;61.70;;;;;;5054670;28;20099;-75
2021/10/16 01:26:35;;;;;;;0.00;0.00;;;11.00;61.60;;;;;;5037008;28;20082;-76
2021/10/16 01:29:01;;;;;;;0.00;0.00;;;11.10;61.50;;;;;;5036824;28;20032;-75
2021/10/16 01:31:27;;;;;;;0.00;0.00;;;11.10;61.30;;;;;;5036425;28;20037;-76
2021/10/16 01:33:53;;;;;;;0.00;0.00;;;11.10;61.10;;;;;;5054005;28;20087;-75
2021/10/16 01:36:19;;;;;;;0.00;0.00;;;11.20;61.10;;;;;;5054978;28;20032;-75
2021/10/16 01:38:45;;;;;;;0.00;0.00;;;11.20;61.10;;;;;;5054526;28;20044;-75
2021/10/16 01:41:11;;;;;;;0.00;0.00;;;11.20;61.20;;;;;;5054024;28;20457;-76
2021/10/16 01:43:37;;;;;;;0.00;0.00;;;11.20;61.30;;;;;;5054197;28;20029;-75
2021/10/16 01:46:03;;;;;;;0.00;0.00;;;11.30;61.40;;;;;;5054259;28;20108;-76
2021/10/16 01:48:29;;;;;;;0.00;0.00;;;11.30;61.20;;;;;;5054346;28;20056;-75
2021/10/16 01:50:55;;;;;;;0.00;0.00;;;11.30;61.10;;;;;;5072518;28;20052;-76
2021/10/16 01:53:22;;;;;;;0.00;0.00;;;11.30;61.00;;;;;;5073958;28;20039;-75
2021/10/16 01:55:48;;;;;;;0.00;0.00;;;11.30;61.00;;;;;;5074186;28;20032;-75
2021/10/16 01:58:15;;;;;;;0.00;0.00;;;11.30;60.90;;;;;;5074057;28;20074;-75
2021/10/16 02:00:45;;;;;;;0.00;0.00;;;11.30;60.80;;;;;;5074132;28;20032;-75
2021/10/16 02:03:11;;;;;;;0.00;0.00;;;11.20;60.60;;;;;;5073787;28;20378;-75
2021/10/16 02:05:46;;;;;;;0.00;0.00;;;11.20;60.60;;;;;;5073970;28;20138;-75
2021/10/16 02:08:13;;;;;;;0.00;0.00;;;11.20;60.40;;;;;;5073874;28;20098;-75
2021/10/16 02:10:39;;;;;;;0.00;0.00;;;11.20;60.30;;;;;;5073674;28;20032;-75
2021/10/16 02:13:06;;;;;;;0.00;0.00;;;11.20;60.40;;;;;;5073836;28;20032;-75
2021/10/16 02:15:31;;;;;;;0.00;0.00;;;11.20;60.50;;;;;;5073573;28;20086;-75
2021/10/16 02:17:57;;;;;;;0.00;0.00;;;11.20;60.60;;;;;;5073585;28;20415;-75
2021/10/16 02:20:23;;;;;;;0.00;0.00;;;11.20;60.50;;;;;;5073818;28;20035;-75
2021/10/16 02:22:49;;;;;;;0.00;0.00;;;11.20;60.40;;;;;;5073776;28;20551;-74
2021/10/16 02:25:15;;;;;;;0.00;0.00;;;11.20;60.30;;;;;;5073325;28;20035;-74
2021/10/16 02:27:41;;;;;;;0.00;0.00;;;11.20;60.30;;;;;;5055917;28;20054;-74
2021/10/16 02:30:08;;;;;;;0.00;0.00;;;11.20;60.10;;;;;;5073464;28;20115;-75
2021/10/16 02:32:35;;;;;;;0.00;0.00;;;11.20;60.10;;;;;;5055427;28;20024;-74
2021/10/16 02:35:01;;;;;;;0.00;0.00;;;11.20;60.10;;;;;;5073962;28;20119;-75
2021/10/16 02:37:26;;;;;;;0.00;0.00;;;11.20;60.20;;;;;;5073345;28;20127;-76
2021/10/16 02:39:52;;;;;;;0.00;0.00;;;11.20;60.20;;;;;;5073406;28;20052;-75
2021/10/16 02:42:18;;;;;;;0.00;0.00;;;11.20;60.20;;;;;;5073301;28;20125;-75
2021/10/16 02:44:43;;;;;;;0.00;0.00;;;11.20;60.20;;;;;;5073349;28;20379;-75
2021/10/16 02:47:09;;;;;;;0.00;0.00;;;11.20;60.10;;;;;;5073475;28;20031;-75
2021/10/16 02:49:35;;;;;;;0.00;0.00;;;11.20;60.10;;;;;;5071953;28;20047;-75
2021/10/16 02:52:01;;;;;;;0.00;0.00;;;11.20;60.10;;;;;;5073133;28;20028;-76
2021/10/16 02:54:26;;;;;;;0.00;0.00;;;11.30;60.10;;;;;;5061644;28;20052;-75
2021/10/16 02:56:52;;;;;;;0.00;0.00;;;11.30;60.10;;;;;;5061849;28;20059;-76
2021/10/16 02:59:18;;;;;;;0.00;0.00;;;11.30;60.00;;;;;;5079766;28;20024;-76
2021/10/16 03:01:43;;;;;;;0.00;0.00;;;11.20;59.90;;;;;;5079960;28;20024;-75
2021/10/16 03:04:09;;;;;;;0.00;0.00;;;11.20;59.90;;;;;;5079881;28;20055;-75
2021/10/16 03:06:35;;;;;;;0.00;0.00;;;11.20;59.80;;;;;;5079728;28;20068;-74
2021/10/16 03:09:01;;;;;;;0.00;0.00;;;11.20;59.90;;;;;;5079628;28;20028;-75
2021/10/16 03:11:26;;;;;;;0.00;0.00;;;11.20;60.00;;;;;;5079696;28;20090;-74
2021/10/16 03:13:52;;;;;;;0.00;0.00;;;11.20;60.20;;;;;;5062160;28;20028;-74
2021/10/16 03:16:18;;;;;;;0.00;0.00;;;11.20;60.30;;;;;;5079871;28;20488;-76
2021/10/16 03:18:44;;;;;;;0.00;0.00;;;11.10;60.30;;;;;;5079894;28;20067;-74
2021/10/16 03:21:10;;;;;;;0.00;0.00;;;11.10;60.60;;;;;;5062080;28;20032;-75
2021/10/16 03:23:36;;;;;;;0.00;0.00;;;11.00;60.70;;;;;;5059546;28;20560;-76
2021/10/16 03:26:02;;;;;;;0.00;0.00;;;11.00;60.80;;;;;;5059703;28;20115;-76
2021/10/16 03:28:27;;;;;;;0.00;0.00;;;11.00;60.70;;;;;;5059816;28;20033;-75
2021/10/16 03:30:53;;;;;;;0.00;0.00;;;11.00;60.70;;;;;;5059523;28;20523;-74
2021/10/16 03:33:19;;;;;;;0.00;0.00;;;11.00;60.60;;;;;;5059383;28;20032;-77
2021/10/16 03:35:45;;;;;;;0.00;0.00;;;11.00;60.60;;;;;;5059842;28;20461;-74
2021/10/16 03:38:11;;;;;;;0.00;0.00;;;11.00;60.70;;;;;;5059444;28;20028;-74
2021/10/16 03:40:36;;;;;;;0.00;0.00;;;11.00;60.70;;;;;;5059470;28;20159;-76
2021/10/16 03:43:02;;;;;;;0.00;0.00;;;11.00;60.60;;;;;;5059308;28;20021;-75
2021/10/16 03:45:28;;;;;;;0.00;0.00;;;11.00;60.60;;;;;;5041685;28;20384;-75
2021/10/16 03:47:53;;;;;;;0.00;0.00;;;11.10;60.70;;;;;;5059419;28;20039;-74
2021/10/16 03:50:19;;;;;;;0.00;0.00;;;11.10;60.80;;;;;;5059529;28;20372;-76
2021/10/16 03:52:45;;;;;;;0.00;0.00;;;11.10;60.90;;;;;;5041602;28;20025;-75
2021/10/16 03:55:11;;;;;;;0.00;0.00;;;11.10;61.00;;;;;;5060636;28;20029;-75
2021/10/16 03:57:37;;;;;;;0.00;0.00;;;11.20;61.20;;;;;;5079860;28;20028;-75
2021/10/16 04:00:05;;;;;;;0.00;0.00;;;11.20;61.20;;;;;;5079206;28;20082;-76
2021/10/16 04:02:30;;;;;;;0.00;0.00;;;11.20;61.10;;;;;;5078368;28;20119;-74
2021/10/16 04:04:56;;;;;;;0.00;0.00;;;11.30;61.00;;;;;;5077669;28;20115;-76
2021/10/16 04:07:22;;;;;;;0.00;0.00;;;11.20;60.90;;;;;;5076323;28;20028;-76
2021/10/16 04:09:48;;;;;;;0.00;0.00;;;11.30;61.50;;;;;;5058400;28;20024;-76
2021/10/16 04:12:13;;;;;;;0.00;0.00;;;11.30;60.80;;;;;;5074767;28;20032;-75
2021/10/16 04:14:39;;;;;;;0.05;0.05;;;11.30;60.70;;;;;;5076044;28;20473;-76
2021/10/16 04:17:05;;;;;;;0.00;0.00;;;11.30;60.60;;;;;;5076210;28;20025;-75
2021/10/16 04:19:30;;;;;;;0.00;0.00;;;11.40;60.80;;;;;;5075931;28;20024;-74
2021/10/16 04:21:56;;;;;;;0.00;0.00;;;11.40;60.70;;;;;;5076453;28;20107;-75
2021/10/16 04:24:22;;;;;;;0.00;0.00;;;11.40;61.30;;;;;;5075899;28;20022;-76
2021/10/16 04:26:48;;;;;;;0.00;0.00;;;11.40;60.70;;;;;;5076136;28;20024;-74
2021/10/16 04:29:14;;;;;;;0.00;0.00;;;11.40;60.60;;;;;;5075986;28;20031;-74
2021/10/16 04:31:40;;;;;;;0.00;0.00;;;11.50;60.80;;;;;;5075690;28;20245;-76
2021/10/16 04:34:06;;;;;;;0.00;0.00;;;11.50;61.10;;;;;;5075825;28;20108;-76
2021/10/16 04:36:33;;;;;;;0.00;0.00;;;11.50;61.30;;;;;;5075805;28;20028;-75
2021/10/16 04:38:59;;;;;;;0.00;0.00;;;11.50;61.50;;;;;;5057626;28;20060;-76
2021/10/16 04:41:25;;;;;;;0.00;0.00;;;11.60;61.70;;;;;;5075572;28;20089;-75
2021/10/16 04:43:51;;;;;;;0.00;0.00;;;11.60;61.80;;;;;;5075661;28;20461;-74
2021/10/16 04:46:17;;;;;;;0.00;0.00;;;11.60;61.80;;;;;;5057430;28;20028;-75
2021/10/16 04:48:46;;;;;;;0.00;0.00;;;11.60;61.70;;;;;;5057616;28;20029;-76
2021/10/16 04:51:12;;;;;;;0.00;0.00;;;11.60;61.70;;;;;;5057359;28;20489;-75
2021/10/16 04:53:38;;;;;;;0.00;0.00;;;11.60;61.80;;;;;;5075406;28;20033;-75
2021/10/16 04:56:05;;;;;;;0.00;0.00;;;11.70;61.70;;;;;;5075390;28;20453;-77
2021/10/16 04:58:31;;;;;;;0.00;0.00;;;11.70;61.50;;;;;;5074308;28;20028;-76
2021/10/16 05:00:57;;;;;;;0.00;0.00;;;11.70;61.30;;;;;;5075033;28;20024;-76
2021/10/16 05:03:23;;;;;;;0.00;0.00;;;11.70;61.20;;;;;;5074912;28;20046;-76
2021/10/16 05:05:49;;;;;;;0.00;0.00;;;11.70;61.10;;;;;;5057140;28;20029;-76
2021/10/16 05:08:14;;;;;;;0.10;0.10;;;11.60;61.00;;;;;;5073887;28;20078;-76
2021/10/16 05:10:41;;;;;;;0.00;0.00;;;11.60;60.80;;;;;;5057217;28;20029;-76
2021/10/16 05:13:06;;;;;;;0.10;0.10;;;11.60;60.70;;;;;;5074632;28;20469;-76
2021/10/16 05:15:32;;;;;;;0.00;0.00;;;11.50;60.70;;;;;;5074523;28;20028;-76
2021/10/16 05:17:58;;;;;;;0.00;0.00;;;11.50;60.80;;;;;;5073468;28;20029;-76
2021/10/16 05:20:24;;;;;;;0.00;0.00;;;11.50;60.90;;;;;;5043237;28;20035;-76
2021/10/16 05:22:50;;;;;;;0.00;0.00;;;11.50;60.90;;;;;;5043410;28;20033;-75
2021/10/16 05:25:16;;;;;;;0.38;0.38;;;11.60;61.00;;;;;;5044275;28;20025;-77
2021/10/16 05:27:42;;;;;;;0.00;0.00;;;11.70;61.20;;;;;;5042131;28;20025;-77
2021/10/16 05:30:09;;;;;;;0.10;0.10;;;11.70;61.30;;;;;;5042457;28;20075;-75
2021/10/16 05:32:36;;;;;;;0.00;0.00;;;11.80;61.40;;;;;;5043625;28;20077;-75
2021/10/16 05:35:03;;;;;;;0.00;0.00;;;11.90;61.20;;;;;;5043285;28;20037;-76
2021/10/16 05:37:29;;;;;;;0.00;0.00;;;12.00;61.10;;;;;;5044958;28;20029;-77
2021/10/16 05:39:54;;;;;;;0.00;0.00;;;12.00;60.90;;;;;;5049119;28;20051;-76
2021/10/16 05:42:20;;;;;;;0.00;0.00;;;12.10;60.80;;;;;;5054471;28;20357;-77
2021/10/16 05:44:46;;;;;;;0.00;0.00;;;12.10;60.70;;;;;;5036272;28;20025;-76
2021/10/16 05:47:11;;;;;;;0.00;0.00;;;12.20;60.80;;;;;;5053800;28;20063;-76
2021/10/16 05:49:37;;;;;;;0.00;0.00;;;12.30;60.70;;;;;;5054091;28;20445;-76
2021/10/16 05:52:04;;;;;;;0.00;0.00;;;12.40;60.70;;;;;;5054718;28;20049;-75
2021/10/16 05:54:30;;;;;;;0.00;0.00;;;12.40;61.20;;;;;;5054158;28;20025;-76
2021/10/16 05:56:55;;;;;;;0.00;0.00;;;12.50;60.60;;;;;;5054207;28;20362;-76
2021/10/16 05:59:21;;;;;;;0.00;0.00;;;12.60;60.50;;;;;;5053714;28;20100;-74
2021/10/16 06:01:47;;;;;;;0.00;0.00;;;12.70;60.30;;;;;;5053727;28;20024;-75
2021/10/16 06:04:13;;;;;;;0.03;0.03;;;12.70;60.10;;;;;;5059047;28;20028;-76
2021/10/16 06:06:38;;;;;;;0.00;0.00;;;12.80;60.10;;;;;;5053993;28;20041;-76
2021/10/16 06:09:04;;;;;;;0.08;0.08;;;12.90;59.90;;;;;;5036297;28;20125;-74
2021/10/16 06:11:30;;;;;;;0.00;0.00;;;12.90;59.60;;;;;;5053868;28;20029;-75
2021/10/16 06:13:56;;;;;;;0.00;0.00;;;13.00;59.60;;;;;;5053721;28;20541;-75
2021/10/16 06:16:21;;;;;;;0.00;0.00;;;13.00;60.10;;;;;;5053566;28;20033;-75
2021/10/16 06:18:47;;;;;;;0.00;0.00;;;13.00;59.40;;;;;;5053890;28;20108;-75
2021/10/16 06:21:13;;;;;;;0.00;0.00;;;13.00;59.40;;;;;;5053566;28;20457;-75
2021/10/16 06:23:39;;;;;;;0.00;0.00;;;13.10;59.50;;;;;;5053554;28;20028;-75
2021/10/16 06:26:05;;;;;;;0.00;0.00;;;13.10;59.60;;;;;;5053838;28;20120;-75
2021/10/16 06:28:31;;;;;;;0.00;0.00;;;13.10;59.70;;;;;;5071731;28;20032;-74
2021/10/16 06:30:57;;;;;;;0.00;0.00;;;13.10;59.70;;;;;;5073354;28;20029;-74
2021/10/16 06:33:24;;;;;;;0.00;0.00;;;13.20;59.80;;;;;;5073569;28;20028;-76
2021/10/16 06:35:53;;;;;;;0.10;0.10;;;13.20;59.90;;;;;;5073922;28;20032;-76
2021/10/16 06:38:20;;;;;;;0.00;0.00;;;13.20;60.00;;;;;;5073189;28;20487;-76
2021/10/16 06:40:46;;;;;;;0.00;0.00;;;13.30;60.00;;;;;;5073199;28;20035;-76
2021/10/16 06:43:12;;;;;;;0.00;0.00;;;13.30;60.00;;;;;;5055327;28;20375;-76
2021/10/16 06:45:38;;;;;;;0.00;0.00;;;13.40;60.00;;;;;;5072972;28;20033;-76
2021/10/16 06:48:04;;;;;;;0.00;0.00;;;13.40;60.00;;;;;;5055425;28;20033;-75
2021/10/16 06:50:30;;;;;;;0.00;0.00;;;13.40;60.10;;;;;;5073069;28;20397;-75
2021/10/16 06:52:56;;;;;;;0.00;0.00;;;13.40;60.10;;;;;;5073180;28;20432;-76
2021/10/16 06:55:21;;;;;;;0.00;0.00;;;13.40;60.20;;;;;;5055398;28;20492;-75
2021/10/16 06:57:47;;;;;;;0.00;0.00;;;13.40;60.30;;;;;;5073255;28;20031;-75
2021/10/16 07:00:13;;;;;;;0.85;0.05;;;13.30;60.30;;;;;;5055448;28;20460;-75
2021/10/16 07:02:39;;;;;;;0.00;0.00;;;13.30;60.30;;;;;;5073423;28;20097;-74
2021/10/16 07:05:05;;;;;;;0.00;0.00;;;13.30;60.20;;;;;;5055407;28;20029;-76
2021/10/16 07:07:31;;;;;;;0.00;0.00;;;13.30;60.20;;;;;;5073476;28;20496;-75
2021/10/16 07:09:57;;;;;;;0.00;0.00;;;13.30;60.20;;;;;;5073056;28;20082;-76
2021/10/16 07:12:23;;;;;;;0.00;0.00;;;13.30;60.30;;;;;;5073154;28;20025;-75
2021/10/16 07:14:49;;;;;;;0.00;0.00;;;13.40;60.50;;;;;;5073303;28;20103;-76
2021/10/16 07:17:15;;;;;;;0.00;0.00;;;13.40;60.60;;;;;;5072909;28;20043;-75
2021/10/16 07:19:41;;;;;;;0.00;0.00;;;13.40;60.60;;;;;;5071999;28;20469;-76
2021/10/16 07:22:07;;;;;;;0.00;0.00;;;13.40;60.60;;;;;;5073257;28;20112;-76
2021/10/16 07:24:33;;;;;;;0.00;0.00;;;13.50;60.40;;;;;;5062849;28;20088;-77
2021/10/16 07:26:59;;;;;;;0.00;0.00;;;13.50;60.10;;;;;;5024874;28;20561;-77
2021/10/16 07:29:25;;;;;;;0.00;0.00;;;13.50;60.10;;;;;;5041904;28;20462;-76
2021/10/16 07:31:53;;;;;;;0.00;0.00;;;13.50;60.20;;;;;;5043337;28;20101;-77
2021/10/16 07:34:19;;;;;;;0.00;0.00;;;13.50;60.30;;;;;;5043217;28;20048;-76
2021/10/16 07:36:47;;;;;;;0.00;0.00;;;13.60;60.30;;;;;;5026087;28;20028;-77
2021/10/16 07:39:15;;;;;;;0.00;0.00;;;13.60;60.30;;;;;;5022964;28;20025;-76
2021/10/16 07:41:46;;;;;;;0.10;0.03;;;13.60;60.30;;;;;;5028055;28;20060;-77
2021/10/16 07:44:14;;;;;;;0.00;0.00;;;13.60;60.30;;;;;;5045526;28;20021;-76
2021/10/16 07:46:40;;;;;;;0.00;0.00;;;13.60;60.40;;;;;;5047217;28;20036;-76
2021/10/16 07:49:07;;;;;;;0.05;0.00;;;13.60;60.40;;;;;;5044701;28;20029;-76
2021/10/16 07:51:33;;;;;;;0.00;0.00;;;13.60;60.40;;;;;;5030808;28;20033;-76
2021/10/16 07:53:59;;;;;;;0.00;0.00;;;13.60;60.50;;;;;;5047539;28;20025;-76
2021/10/16 07:56:25;;;;;;;0.00;0.00;;;13.50;60.50;;;;;;5051920;28;20036;-76
2021/10/16 07:58:51;;;;;;;0.00;0.00;;;13.40;60.50;;;;;;5038759;28;20029;-77
2021/10/16 08:01:17;;;;;;;0.00;0.00;;;13.40;60.70;;;;;;5056510;28;20025;-75
2021/10/16 08:03:42;;;;;;;0.00;0.00;;;13.40;60.60;;;;;;5046822;28;20052;-77
2021/10/16 08:06:09;;;;;;;0.00;0.00;;;13.40;60.70;;;;;;5047360;28;20029;-77
2021/10/16 08:08:35;;;;;;;0.00;0.00;;;13.40;60.60;;;;;;5045119;28;20478;-78
2021/10/16 08:11:01;;;;;;;0.00;0.00;;;13.40;60.50;;;;;;5050596;28;20112;-76
2021/10/16 08:13:31;;;;;;;0.00;0.00;;;13.40;60.60;;;;;;5046792;28;20028;-76
2021/10/16 08:15:59;;;;;;;0.00;0.00;;;13.50;60.70;;;;;;5035122;28;20035;-76
2021/10/16 08:18:30;;;;;;;0.00;0.00;;;13.60;60.60;;;;;;5027320;28;20029;-78
2021/10/16 08:20:57;;;;;;;0.00;0.00;;;13.80;60.40;;;;;;5061958;28;20021;-78
2021/10/16 08:23:24;;;;;;;0.00;0.00;;;13.90;60.20;;;;;;5056386;28;20025;-80
2021/10/16 08:25:51;;;;;;;0.00;0.00;;;14.00;60.20;;;;;;5057546;28;20048;-79
2021/10/16 08:28:22;;;;;;;0.00;0.00;;;14.00;60.00;;;;;;5022606;28;20029;-81
2021/10/16 08:31:12;;;;;;;0.00;0.00;;;14.10;60.00;;;;;;5051471;28;20027;-79
2021/10/16 08:33:39;;;;;;;0.60;0.00;;;14.10;60.00;;;;;;5056842;28;20052;-81
2021/10/16 08:36:06;;;;;;;0.00;0.00;;;14.10;59.80;;;;;;5057373;28;20025;-80
2021/10/16 08:38:32;;;;;;;0.00;0.00;;;14.00;59.70;;;;;;5057663;28;20028;-79
2021/10/16 08:40:59;;;;;;;0.00;0.00;;;14.00;59.70;;;;;;5057005;28;20037;-80
2021/10/16 08:43:26;;;;;;;0.10;0.10;;;14.00;59.80;;;;;;5055171;28;20048;-75
2021/10/16 08:45:52;;;;;;;0.00;0.00;;;14.10;59.90;;;;;;5055369;28;20409;-76
2021/10/16 08:48:18;;;;;;;0.00;0.00;;;14.10;59.80;;;;;;5055040;28;20056;-76
2021/10/16 08:50:48;;;;;;;0.00;0.00;;;14.20;59.70;;;;;;5052775;28;20106;-76
2021/10/16 08:53:14;;;;;;;0.00;0.00;;;14.30;59.60;;;;;;5055024;28;20461;-75
2021/10/16 08:55:42;;;;;;;0.00;0.00;;;14.20;59.40;;;;;;5037242;28;20044;-75
2021/10/16 08:58:08;;;;;;;0.00;0.00;;;14.20;59.40;;;;;;5053076;28;20075;-75
2021/10/16 09:00:37;;;;;;;0.00;0.00;;;14.30;59.50;;;;;;5055028;28;20025;-75
2021/10/16 09:03:40;;;;;;;0.00;0.00;;;14.30;59.60;;;;;;5054897;28;20099;-75
2021/10/16 09:06:30;;;;;;;0.00;0.00;;;14.30;59.90;;;;;;5046907;28;20045;-75
2021/10/16 09:09:04;;;;;;;0.00;0.00;;;14.40;59.80;;;;;;5028976;28;20022;-75
2021/10/16 09:11:35;;;;;;;0.00;0.00;;;14.50;59.70;;;;;;5045315;28;20489;-75
2021/10/16 09:14:07;;;;;;;0.00;0.00;;;14.60;59.80;;;;;;5043203;28;20116;-77
2021/10/16 09:16:40;;;;;;;0.00;0.00;;;14.60;59.80;;;;;;5044714;28;20092;-77
2021/10/16 09:19:16;;;;;;;0.10;0.00;;;14.50;59.80;;;;;;5043898;28;20381;-78
2021/10/16 09:25:08;;;;;;;0.00;0.00;;;14.60;60.10;;;;;;5043499;28;20074;-78
2021/10/16 09:27:33;;;;;;;0.08;0.08;;;14.70;59.80;;;;;;5043497;28;20028;-77
2021/10/16 09:30:06;;;;;;;0.00;0.00;;;14.80;59.80;;;;;;5046118;28;20370;-77
2021/10/16 09:32:31;;;;;;;0.00;0.00;;;14.90;59.80;;;;;;5042768;28;20029;-75
2021/10/16 09:35:12;;;;;;;0.00;0.00;;;15.00;59.60;;;;;;5034325;28;20121;-76
2021/10/16 09:37:52;;;;;;;0.00;0.00;;;15.10;59.50;;;;;;5016789;28;20063;-77
2021/10/16 09:40:41;;;;;;;0.00;0.00;;;15.30;59.40;;;;;;5044831;28;20124;-81
2021/10/16 09:43:17;;;;;;;0.00;0.00;;;15.50;59.30;;;;;;5038745;28;20041;-78
2021/10/16 09:45:43;;;;;;;0.03;0.00;;;15.60;59.00;;;;;;5045521;28;20021;-77
2021/10/16 09:48:10;;;;;;;0.00;0.00;;;15.80;58.80;;;;;;5024813;28;20083;-77
2021/10/16 09:50:36;;;;;;;0.00;0.00;;;15.90;58.50;;;;;;5045415;28;20113;-77
2021/10/16 09:53:17;;;;;;;0.00;0.00;;;16.00;58.00;;;;;;5045233;28;20537;-77
2021/10/16 09:55:44;;;;;;;0.00;0.00;;;16.20;57.60;;;;;;5047493;28;20064;-77
2021/10/16 09:58:12;;;;;;;0.00;0.00;;;16.30;57.40;;;;;;5052948;28;20406;-78
2021/10/16 10:00:39;;;;;;;0.00;0.00;;;16.60;57.20;;;;;;5035915;28;20031;-77
2021/10/16 10:03:09;;;;;;;0.00;0.00;;;16.80;56.90;;;;;;5052228;28;20082;-77
2021/10/16 10:05:35;;;;;;;0.00;0.00;;;17.00;56.40;;;;;;5042882;28;20433;-76
2021/10/16 10:08:01;;;;;;;0.00;0.00;;;17.10;56.10;;;;;;5034369;28;20405;-75
2021/10/16 10:10:28;;;;;;;0.00;0.00;;;17.40;55.80;;;;;;5033498;28;20118;-77
2021/10/16 10:12:56;;;;;;;0.00;0.00;;;17.60;55.40;;;;;;5033688;28;20033;-76
2021/10/16 10:15:22;;;;;;;0.00;0.00;;;17.90;54.80;;;;;;5033887;28;20462;-77
2021/10/16 10:17:48;;;;;;;0.00;0.00;;;18.10;54.40;;;;;;5035076;28;20090;-76
2021/10/16 10:20:15;;;;;;;0.00;0.00;;;18.40;53.80;;;;;;5035955;28;20032;-76
2021/10/16 10:22:46;;;;;;;0.00;0.00;;;18.70;53.20;;;;;;5053316;28;20163;-75
2021/10/16 10:25:26;;;;;;;0.00;0.00;;;18.90;52.70;;;;;;5035526;28;20056;-76
2021/10/16 10:27:54;;;;;;;0.00;0.00;;;19.10;52.20;;;;;;5036004;28;20422;-76
2021/10/16 10:30:35;;;;;;;0.00;0.00;;;19.20;51.70;;;;;;5035586;28;20032;-78
2021/10/16 10:33:15;;;;;;;0.00;0.00;;;19.30;50.90;;;;;;5053458;28;20033;-77
2021/10/16 10:36:05;;;;;;;0.00;0.00;;;19.20;50.90;;;;;;5053314;28;20032;-76
2021/10/16 10:38:42;;;;;;;0.00;0.00;;;19.10;51.00;;;;;;5053214;28;20112;-76
2021/10/16 10:41:25;;;;;;;0.00;0.00;;;18.90;51.20;;;;;;5052680;28;20021;-75
2021/10/16 10:43:53;;;;;;;0.00;0.00;;;18.80;51.50;;;;;;5053381;28;20423;-76
2021/10/16 10:46:27;;;;;;;0.00;0.00;;;18.70;51.80;;;;;;5050175;28;20036;-77
2021/10/16 10:48:53;;;;;;;;;;;18.70;51.90;;;;;;5024646;28;20036;-77
2021/10/16 10:51:34;;;;;;;0.00;0.00;;;18.60;52.10;;;;;;5024198;28;20008;-77
2021/10/16 10:54:16;;;;;;;0.00;0.00;;;18.60;52.70;;;;;;5026884;28;20033;-77
2021/10/16 10:56:45;;;;;;;0.00;0.00;;;18.50;53.30;;;;;;5023295;28;20032;-76
2021/10/16 10:59:14;;;;;;;0.00;0.00;;;18.40;53.70;;;;;;5043670;28;20052;-78
2021/10/16 11:02:19;;;;;;;0.00;0.00;;;18.40;54.10;;;;;;5026874;28;20381;-76
2021/10/16 11:04:55;;;;;;;0.00;0.00;;;18.30;54.40;;;;;;5026578;28;20025;-76
2021/10/16 11:07:47;;;;;;;0.00;0.00;;;18.20;54.50;;;;;;5024087;28;20083;-76
2021/10/16 11:10:13;;;;;;;0.00;0.00;;;18.10;54.80;;;;;;5026916;28;20567;-76
2021/10/16 11:12:42;;;;;;;0.00;0.00;;;18.00;55.00;;;;;;5035277;28;20385;-78
2021/10/16 11:15:12;;;;;;;0.00;0.00;;;17.90;55.30;;;;;;5034599;28;20103;-77
2021/10/16 11:17:40;;;;;;;0.10;0.10;;;17.90;55.50;;;;;;5026140;28;20053;-78
2021/10/16 11:20:09;;;;;;;0.00;0.00;;;17.90;55.50;;;;;;5037234;28;20037;-78
2021/10/16 11:22:51;;;;;;;0.00;0.00;;;18.00;55.50;;;;;;5037193;28;20053;-77
2021/10/16 11:25:20;;;;;;;0.00;0.00;;;17.90;55.60;;;;;;5045935;28;20057;-77
2021/10/16 11:28:07;;;;;;;0.00;0.00;;;17.90;55.70;;;;;;5039181;28;20393;-76
2021/10/16 11:30:42;;;;;;;0.00;0.00;;;17.80;55.80;;;;;;5056984;28;20369;-77
2021/10/16 11:33:13;;;;;;;0.00;0.00;;;17.80;55.80;;;;;;5056710;28;20036;-76
2021/10/16 11:35:41;;;;;;;0.00;0.00;;;17.70;55.70;;;;;;5034624;28;20535;-76
2021/10/16 11:38:09;;;;;;;0.00;0.00;;;17.60;55.80;;;;;;5046846;28;20025;-76
2021/10/16 11:40:36;;;;;;;0.00;0.00;;;17.60;55.80;;;;;;5037796;28;20033;-77
2021/10/16 11:43:10;;;;;;;0.00;0.00;;;17.50;55.80;;;;;;5056725;28;20112;-77
2021/10/16 11:45:38;;;;;;;0.00;0.00;;;17.50;55.80;;;;;;5056317;28;20118;-76
2021/10/16 11:48:10;;;;;;;0.00;0.00;;;17.40;55.80;;;;;;5038593;28;20067;-76
2021/10/16 11:50:42;;;;;;;0.00;0.00;;;17.20;55.90;;;;;;5051309;28;20103;-76
2021/10/16 11:53:13;;;;;;;0.00;0.00;;;17.10;55.90;;;;;;5053591;28;20033;-75
2021/10/16 11:55:42;;;;;;;0.00;0.00;;;17.00;56.00;;;;;;5056306;28;20444;-77
2021/10/16 11:58:15;;;;;;;0.00;0.00;;;16.90;56.20;;;;;;5056703;28;20425;-76
2021/10/16 12:00:43;;;;;;;0.00;0.00;;;16.80;56.30;;;;;;5056455;28;20025;-76
2021/10/16 12:03:21;;;;;;;0.00;0.00;;;16.70;56.40;;;;;;5042638;28;20037;-76
2021/10/16 12:05:49;;;;;;;0.00;0.00;;;16.70;56.70;;;;;;5036695;28;20025;-76
2021/10/16 12:08:20;;;;;;;0.00;0.00;;;16.60;56.80;;;;;;5037036;28;20389;-77
2021/10/16 12:10:49;;;;;;;0.00;0.00;;;16.60;56.90;;;;;;5036858;28;20037;-76
2021/10/16 12:13:29;;;;;;;0.00;0.00;;;16.60;57.00;;;;;;5036974;28;20075;-75
2021/10/16 12:15:56;;;;;;;0.00;0.00;;;16.60;57.10;;;;;;5036774;28;20030;-75
2021/10/16 12:18:30;;;;;;;0.00;0.00;;;16.50;57.10;;;;;;5035758;28;20025;-77
2021/10/16 12:21:02;;;;;;;0.00;0.00;;;16.50;57.20;;;;;;5018974;28;20116;-76
2021/10/16 12:23:47;;;;;;;0.00;0.00;;;16.50;57.30;;;;;;5018417;28;20029;-78
2021/10/16 12:26:20;;;;;;;;;;;16.50;57.20;;;;;;5035479;28;20112;-76
2021/10/16 12:28:47;;;;;;;0.00;0.00;;;16.50;57.10;;;;;;5036770;28;19920;-76
2021/10/16 12:31:14;;;;;;;0.00;0.00;;;16.50;57.00;;;;;;5036167;28;20472;-75
2021/10/16 12:34:03;;;;;;;0.00;0.00;;;16.40;57.20;;;;;;5036481;28;20045;-76
2021/10/16 12:36:29;;;;;;;0.00;0.00;;;16.40;57.30;;;;;;5038704;28;20512;-77
2021/10/16 12:38:55;;;;;;;0.00;0.00;;;16.40;57.30;;;;;;5057333;28;20053;-77
2021/10/16 12:41:25;;;;;;;0.00;0.00;;;16.40;57.30;;;;;;5046280;28;20108;-76
2021/10/16 12:43:50;;;;;;;0.00;0.00;;;16.40;57.40;;;;;;5057649;28;20059;-78
2021/10/16 12:46:29;;;;;;;0.00;0.00;;;16.40;57.50;;;;;;5075490;28;20071;-76
2021/10/16 12:48:56;;;;;;;0.00;0.00;;;16.40;57.60;;;;;;5074310;28;20025;-76
2021/10/16 12:51:37;;;;;;;0.00;0.00;;;16.30;57.60;;;;;;5075533;28;20024;-77
2021/10/16 12:54:03;;;;;;;0.00;0.00;;;16.20;57.60;;;;;;5075501;28;20532;-76
2021/10/16 12:56:28;;;;;;;0.00;0.00;;;16.20;57.80;;;;;;5075363;28;20032;-76